sensor_id;sensor_type;location;lat;lon;timestamp;pressure;altitude;pressure_sealevel;temperature;humidity
30598;BME280;17365;48.878;8.334;2023-02-20T00:01:47;101323.94;;;8.60;88.75
30598;BME280;17365;48.878;8.334;2023-02-20T00:04:12;101323.00;;;8.58;88.78
30598;BME280;17365;48.878;8.334;2023-02-20T00:06:38;101324.03;;;8.63;88.51
30598;BME280;17365;48.878;8.334;2023-02-20T00:09:03;101325.31;;;8.49;89.32
30598;BME280;17365;48.878;8.334;2023-02-20T00:11:29;101323.06;;;8.59;88.54
30598;BME280;17365;48.878;8.334;2023-02-20T00:13:54;101316.81;;;8.51;89.10
30598;BME280;17365;48.878;8.334;2023-02-20T00:16:19;101315.09;;;8.52;89.09
30598;BME280;17365;48.878;8.334;2023-02-20T00:18:45;101314.19;;;8.50;89.41
30598;BME280;17365;48.878;8.334;2023-02-20T00:21:10;101304.63;;;8.49;89.40
30598;BME280;17365;48.878;8.334;2023-02-20T00:23:35;101307.53;;;8.31;90.43
30598;BME280;17365;48.878;8.334;2023-02-20T00:26:01;101307.94;;;8.43;89.89
30598;BME280;17365;48.878;8.334;2023-02-20T00:28:26;101309.09;;;8.26;90.36
30598;BME280;17365;48.878;8.334;2023-02-20T00:30:51;101301.31;;;8.26;90.82
30598;BME280;17365;48.878;8.334;2023-02-20T00:33:17;101309.59;;;8.14;90.93
30598;BME280;17365;48.878;8.334;2023-02-20T00:35:42;101317.63;;;8.23;90.86
30598;BME280;17365;48.878;8.334;2023-02-20T00:38:07;101322.50;;;8.14;91.50
30598;BME280;17365;48.878;8.334;2023-02-20T00:40:33;101332.94;;;8.15;91.16
30598;BME280;17365;48.878;8.334;2023-02-20T00:42:58;101333.69;;;8.13;91.11
30598;BME280;17365;48.878;8.334;2023-02-20T00:45:23;101326.63;;;8.07;91.11
30598;BME280;17365;48.878;8.334;2023-02-20T00:47:48;101332.09;;;8.16;91.10
30598;BME280;17365;48.878;8.334;2023-02-20T00:50:15;101326.97;;;8.18;90.87
30598;BME280;17365;48.878;8.334;2023-02-20T00:52:41;101320.97;;;8.19;91.21
30598;BME280;17365;48.878;8.334;2023-02-20T00:55:06;101320.88;;;8.16;91.12
30598;BME280;17365;48.878;8.334;2023-02-20T00:57:31;101314.72;;;8.12;91.42
30598;BME280;17365;48.878;8.334;2023-02-20T00:59:57;101318.84;;;8.06;91.17
30598;BME280;17365;48.878;8.334;2023-02-20T01:02:22;101309.53;;;8.12;90.80
30598;BME280;17365;48.878;8.334;2023-02-20T01:04:48;101313.16;;;8.17;90.95
30598;BME280;17365;48.878;8.334;2023-02-20T01:07:13;101315.47;;;8.08;91.07
30598;BME280;17365;48.878;8.334;2023-02-20T01:09:38;101315.59;;;8.13;90.96
30598;BME280;17365;48.878;8.334;2023-02-20T01:12:04;101309.25;;;8.03;91.13
30598;BME280;17365;48.878;8.334;2023-02-20T01:14:29;101312.72;;;8.04;90.97
30598;BME280;17365;48.878;8.334;2023-02-20T01:16:55;101304.66;;;7.93;91.20
30598;BME280;17365;48.878;8.334;2023-02-20T01:19:21;101303.75;;;7.93;91.65
30598;BME280;17365;48.878;8.334;2023-02-20T01:21:47;101306.59;;;8.00;91.66
30598;BME280;17365;48.878;8.334;2023-02-20T01:24:13;101309.97;;;7.98;91.62
30598;BME280;17365;48.878;8.334;2023-02-20T01:26:40;101300.59;;;8.01;91.06
30598;BME280;17365;48.878;8.334;2023-02-20T01:29:06;101302.53;;;8.08;90.96
30598;BME280;17365;48.878;8.334;2023-02-20T01:31:31;101307.25;;;7.93;91.75
30598;BME280;17365;48.878;8.334;2023-02-20T01:33:56;101303.91;;;7.97;90.93
30598;BME280;17365;48.878;8.334;2023-02-20T01:36:21;101299.63;;;7.98;91.28
30598;BME280;17365;48.878;8.334;2023-02-20T01:38:47;101298.75;;;7.97;91.42
30598;BME280;17365;48.878;8.334;2023-02-20T01:41:13;101288.38;;;7.96;91.60
30598;BME280;17365;48.878;8.334;2023-02-20T01:43:38;101289.19;;;7.95;91.43
30598;BME280;17365;48.878;8.334;2023-02-20T01:46:34;101296.50;;;7.81;92.03
30598;BME280;17365;48.878;8.334;2023-02-20T01:49:12;101296.66;;;7.85;91.86
30598;BME280;17365;48.878;8.334;2023-02-20T01:51:42;101299.06;;;7.81;91.89
30598;BME280;17365;48.878;8.334;2023-02-20T01:54:14;101289.91;;;7.91;91.52
30598;BME280;17365;48.878;8.334;2023-02-20T01:56:40;101283.03;;;7.91;91.33
30598;BME280;17365;48.878;8.334;2023-02-20T01:59:07;101289.00;;;7.88;91.43
30598;BME280;17365;48.878;8.334;2023-02-20T02:01:33;101289.56;;;7.80;92.06
30598;BME280;17365;48.878;8.334;2023-02-20T02:04:03;101283.47;;;7.78;91.78
30598;BME280;17365;48.878;8.334;2023-02-20T02:06:33;101279.50;;;7.87;91.50
30598;BME280;17365;48.878;8.334;2023-02-20T02:09:06;101282.03;;;7.86;91.59
30598;BME280;17365;48.878;8.334;2023-02-20T02:11:33;101279.09;;;7.75;92.51
30598;BME280;17365;48.878;8.334;2023-02-20T02:14:01;101281.44;;;7.68;92.66
30598;BME280;17365;48.878;8.334;2023-02-20T02:28:06;101260.03;;;7.70;92.28
30598;BME280;17365;48.878;8.334;2023-02-20T02:33:32;101256.09;;;7.56;93.05
30598;BME280;17365;48.878;8.334;2023-02-20T02:39:51;101260.06;;;7.72;92.56
30598;BME280;17365;48.878;8.334;2023-02-20T02:43:05;101258.88;;;7.62;92.85
30598;BME280;17365;48.878;8.334;2023-02-20T02:45:29;101260.56;;;7.60;92.62
30598;BME280;17365;48.878;8.334;2023-02-20T02:50:33;101253.03;;;7.68;91.99
30598;BME280;17365;48.878;8.334;2023-02-20T02:53:01;101250.41;;;7.66;92.60
30598;BME280;17365;48.878;8.334;2023-02-20T02:55:28;101259.66;;;7.59;92.59
30598;BME280;17365;48.878;8.334;2023-02-20T02:57:54;101258.88;;;7.62;92.81
30598;BME280;17365;48.878;8.334;2023-02-20T03:00:28;101253.63;;;7.59;92.67
30598;BME280;17365;48.878;8.334;2023-02-20T03:03:09;101252.97;;;7.66;92.19
30598;BME280;17365;48.878;8.334;2023-02-20T03:05:48;101250.31;;;7.63;92.30
30598;BME280;17365;48.878;8.334;2023-02-20T03:08:23;101254.84;;;7.70;91.73
30598;BME280;17365;48.878;8.334;2023-02-20T03:11:00;101252.19;;;7.69;91.95
30598;BME280;17365;48.878;8.334;2023-02-20T03:13:29;101253.84;;;7.67;92.29
30598;BME280;17365;48.878;8.334;2023-02-20T03:16:18;101242.81;;;7.71;91.94
30598;BME280;17365;48.878;8.334;2023-02-20T03:18:47;101245.28;;;7.68;91.99
30598;BME280;17365;48.878;8.334;2023-02-20T03:21:17;101246.19;;;7.70;92.09
30598;BME280;17365;48.878;8.334;2023-02-20T03:23:51;101243.53;;;7.67;91.49
30598;BME280;17365;48.878;8.334;2023-02-20T03:26:19;101246.81;;;7.61;91.87
30598;BME280;17365;48.878;8.334;2023-02-20T03:28:51;101244.34;;;7.66;91.49
30598;BME280;17365;48.878;8.334;2023-02-20T03:31:26;101238.94;;;7.58;91.85
30598;BME280;17365;48.878;8.334;2023-02-20T03:34:02;101234.81;;;7.63;91.77
30598;BME280;17365;48.878;8.334;2023-02-20T03:37:06;101235.59;;;7.61;91.48
30598;BME280;17365;48.878;8.334;2023-02-20T03:39:55;101247.84;;;7.68;91.31
30598;BME280;17365;48.878;8.334;2023-02-20T03:42:45;101247.97;;;7.71;91.71
30598;BME280;17365;48.878;8.334;2023-02-20T03:45:30;101245.28;;;7.68;91.31
30598;BME280;17365;48.878;8.334;2023-02-20T03:48:04;101244.56;;;7.72;91.20
30598;BME280;17365;48.878;8.334;2023-02-20T03:50:32;101243.34;;;7.61;92.14
30598;BME280;17365;48.878;8.334;2023-02-20T03:53:16;101245.81;;;7.57;91.93
30598;BME280;17365;48.878;8.334;2023-02-20T03:55:42;101240.78;;;7.61;92.21
30598;BME280;17365;48.878;8.334;2023-02-20T03:58:11;101232.28;;;7.65;91.99
30598;BME280;17365;48.878;8.334;2023-02-20T04:00:41;101228.69;;;7.59;91.98
30598;BME280;17365;48.878;8.334;2023-02-20T04:03:14;101228.38;;;7.50;92.02
30598;BME280;17365;48.878;8.334;2023-02-20T04:05:44;101228.56;;;7.56;91.67
30598;BME280;17365;48.878;8.334;2023-02-20T04:08:17;101232.03;;;7.57;92.04
30598;BME280;17365;48.878;8.334;2023-02-20T04:10:47;101228.38;;;7.50;91.92
30598;BME280;17365;48.878;8.334;2023-02-20T04:13:16;101222.72;;;7.62;91.49
30598;BME280;17365;48.878;8.334;2023-02-20T04:15:42;101223.59;;;7.63;91.35
30598;BME280;17365;48.878;8.334;2023-02-20T04:18:10;101221.13;;;7.66;90.95
30598;BME280;17365;48.878;8.334;2023-02-20T04:20:37;101218.34;;;7.59;91.27
30598;BME280;17365;48.878;8.334;2023-02-20T04:23:23;101226.81;;;7.55;91.46
30598;BME280;17365;48.878;8.334;2023-02-20T04:25:58;101227.81;;;7.59;91.53
30598;BME280;17365;48.878;8.334;2023-02-20T04:28:26;101228.69;;;7.59;91.50
30598;BME280;17365;48.878;8.334;2023-02-20T04:30:52;101234.72;;;7.60;91.31
30598;BME280;17365;48.878;8.334;2023-02-20T04:33:18;101234.16;;;7.43;91.90
30598;BME280;17365;48.878;8.334;2023-02-20T04:35:44;101244.84;;;7.27;93.74
30598;BME280;17365;48.878;8.334;2023-02-20T04:38:10;101240.38;;;6.97;95.05
30598;BME280;17365;48.878;8.334;2023-02-20T04:40:35;101236.78;;;6.92;95.82
30598;BME280;17365;48.878;8.334;2023-02-20T04:43:01;101243.47;;;6.87;95.83
30598;BME280;17365;48.878;8.334;2023-02-20T04:45:26;101241.97;;;6.68;96.80
30598;BME280;17365;48.878;8.334;2023-02-20T04:47:51;101243.72;;;6.69;96.84
30598;BME280;17365;48.878;8.334;2023-02-20T04:50:43;101235.97;;;6.69;96.83
30598;BME280;17365;48.878;8.334;2023-02-20T04:53:08;101240.41;;;6.74;97.07
30598;BME280;17365;48.878;8.334;2023-02-20T04:55:34;101243.84;;;6.74;97.18
30598;BME280;17365;48.878;8.334;2023-02-20T04:57:59;101242.56;;;6.61;97.54
30598;BME280;17365;48.878;8.334;2023-02-20T05:00:25;101248.78;;;6.68;97.55
30598;BME280;17365;48.878;8.334;2023-02-20T05:02:50;101249.41;;;6.61;97.95
30598;BME280;17365;48.878;8.334;2023-02-20T05:05:24;101255.59;;;6.66;98.02
30598;BME280;17365;48.878;8.334;2023-02-20T05:08:02;101248.63;;;6.63;97.30
30598;BME280;17365;48.878;8.334;2023-02-20T05:10:29;101250.78;;;6.75;97.45
30598;BME280;17365;48.878;8.334;2023-02-20T05:12:56;101250.50;;;6.91;96.03
30598;BME280;17365;48.878;8.334;2023-02-20T05:15:23;101255.16;;;6.78;96.40
30598;BME280;17365;48.878;8.334;2023-02-20T05:17:48;101244.44;;;6.67;97.50
30598;BME280;17365;48.878;8.334;2023-02-20T05:20:14;101248.44;;;6.57;98.12
30598;BME280;17365;48.878;8.334;2023-02-20T05:22:40;101247.25;;;6.49;98.92
30598;BME280;17365;48.878;8.334;2023-02-20T05:25:05;101246.28;;;6.46;99.13
30598;BME280;17365;48.878;8.334;2023-02-20T05:27:31;101237.16;;;6.31;99.60
30598;BME280;17365;48.878;8.334;2023-02-20T05:29:58;101234.47;;;6.28;99.69
30598;BME280;17365;48.878;8.334;2023-02-20T05:32:26;101224.06;;;6.25;100.00
30598;BME280;17365;48.878;8.334;2023-02-20T05:34:52;101232.47;;;6.21;100.00
30598;BME280;17365;48.878;8.334;2023-02-20T05:37:18;101224.47;;;6.13;100.00
30598;BME280;17365;48.878;8.334;2023-02-20T05:39:47;101227.25;;;6.20;100.00
30598;BME280;17365;48.878;8.334;2023-02-20T05:42:13;101230.22;;;6.06;100.00
30598;BME280;17365;48.878;8.334;2023-02-20T05:44:39;101226.97;;;6.34;100.00
30598;BME280;17365;48.878;8.334;2023-02-20T05:47:04;101217.56;;;6.12;100.00
30598;BME280;17365;48.878;8.334;2023-02-20T05:49:32;101224.75;;;6.21;100.00
30598;BME280;17365;48.878;8.334;2023-02-20T05:51:59;101227.06;;;6.13;100.00
30598;BME280;17365;48.878;8.334;2023-02-20T05:54:24;101219.91;;;6.06;100.00
30598;BME280;17365;48.878;8.334;2023-02-20T05:56:50;101230.50;;;6.14;100.00
30598;BME280;17365;48.878;8.334;2023-02-20T05:59:17;101220.94;;;6.11;100.00
30598;BME280;17365;48.878;8.334;2023-02-20T06:01:43;101225.63;;;5.99;100.00
30598;BME280;17365;48.878;8.334;2023-02-20T06:04:09;101222.31;;;6.02;100.00
30598;BME280;17365;48.878;8.334;2023-02-20T06:06:40;101227.53;;;6.03;100.00
30598;BME280;17365;48.878;8.334;2023-02-20T06:09:10;101225.53;;;5.96;100.00
30598;BME280;17365;48.878;8.334;2023-02-20T06:11:36;101227.47;;;6.02;100.00
30598;BME280;17365;48.878;8.334;2023-02-20T06:14:03;101226.28;;;6.16;100.00
30598;BME280;17365;48.878;8.334;2023-02-20T06:16:29;101227.47;;;6.24;99.92
30598;BME280;17365;48.878;8.334;2023-02-20T06:18:55;101220.94;;;6.11;100.00
30598;BME280;17365;48.878;8.334;2023-02-20T06:21:21;101227.69;;;6.08;100.00
30598;BME280;17365;48.878;8.334;2023-02-20T06:23:47;101224.28;;;6.09;100.00
30598;BME280;17365;48.878;8.334;2023-02-20T06:26:13;101221.72;;;6.09;100.00
30598;BME280;17365;48.878;8.334;2023-02-20T06:28:39;101219.69;;;6.00;100.00
30598;BME280;17365;48.878;8.334;2023-02-20T06:31:05;101226.41;;;5.97;100.00
30598;BME280;17365;48.878;8.334;2023-02-20T06:33:31;101227.41;;;6.00;100.00
30598;BME280;17365;48.878;8.334;2023-02-20T06:35:57;101226.81;;;6.07;100.00
30598;BME280;17365;48.878;8.334;2023-02-20T06:38:23;101228.38;;;6.26;99.83
30598;BME280;17365;48.878;8.334;2023-02-20T06:40:48;101231.31;;;6.35;99.31
30598;BME280;17365;48.878;8.334;2023-02-20T06:43:13;101225.53;;;6.42;98.98
30598;BME280;17365;48.878;8.334;2023-02-20T06:45:39;101221.69;;;6.55;97.75
30598;BME280;17365;48.878;8.334;2023-02-20T06:48:04;101222.31;;;6.72;96.81
30598;BME280;17365;48.878;8.334;2023-02-20T06:50:29;101224.63;;;6.90;96.11
30598;BME280;17365;48.878;8.334;2023-02-20T06:52:55;101225.63;;;6.93;95.64
30598;BME280;17365;48.878;8.334;2023-02-20T06:55:20;101230.34;;;7.05;94.89
30598;BME280;17365;48.878;8.334;2023-02-20T06:57:45;101233.28;;;7.16;93.84
30598;BME280;17365;48.878;8.334;2023-02-20T07:00:11;101235.94;;;7.19;94.33
30598;BME280;17365;48.878;8.334;2023-02-20T07:02:37;101229.16;;;7.22;93.21
30598;BME280;17365;48.878;8.334;2023-02-20T07:05:06;101225.94;;;7.28;93.22
30598;BME280;17365;48.878;8.334;2023-02-20T07:07:33;101218.31;;;7.33;92.39
30598;BME280;17365;48.878;8.334;2023-02-20T07:09:58;101221.16;;;7.40;92.27
30598;BME280;17365;48.878;8.334;2023-02-20T07:12:29;101223.72;;;7.39;92.04
30598;BME280;17365;48.878;8.334;2023-02-20T07:14:55;101218.06;;;7.50;91.56
30598;BME280;17365;48.878;8.334;2023-02-20T07:17:20;101218.28;;;7.58;90.91
30598;BME280;17365;48.878;8.334;2023-02-20T07:19:45;101209.94;;;7.67;90.51
30598;BME280;17365;48.878;8.334;2023-02-20T07:22:11;101212.16;;;7.81;90.53
30598;BME280;17365;48.878;8.334;2023-02-20T07:24:37;101203.66;;;7.85;90.17
30598;BME280;17365;48.878;8.334;2023-02-20T07:27:02;101212.53;;;7.94;89.37
30598;BME280;17365;48.878;8.334;2023-02-20T07:29:27;101219.44;;;7.95;89.30
30598;BME280;17365;48.878;8.334;2023-02-20T07:31:53;101232.47;;;7.71;89.28
30598;BME280;17365;48.878;8.334;2023-02-20T07:34:18;101233.03;;;7.35;92.21
30598;BME280;17365;48.878;8.334;2023-02-20T07:36:43;101232.94;;;7.32;91.51
30598;BME280;17365;48.878;8.334;2023-02-20T07:39:10;101229.59;;;7.62;91.33
30598;BME280;17365;48.878;8.334;2023-02-20T07:41:36;101228.47;;;7.53;91.42
30598;BME280;17365;48.878;8.334;2023-02-20T07:44:02;101228.97;;;7.42;92.15
30598;BME280;17365;48.878;8.334;2023-02-20T07:46:27;101224.09;;;7.51;91.45
30598;BME280;17365;48.878;8.334;2023-02-20T07:48:52;101231.97;;;7.55;91.06
30598;BME280;17365;48.878;8.334;2023-02-20T07:51:18;101239.25;;;7.67;90.62
30598;BME280;17365;48.878;8.334;2023-02-20T07:53:51;101236.00;;;7.73;90.37
30598;BME280;17365;48.878;8.334;2023-02-20T07:56:17;101236.88;;;7.73;90.91
30598;BME280;17365;48.878;8.334;2023-02-20T07:58:43;101238.03;;;7.83;91.25
30598;BME280;17365;48.878;8.334;2023-02-20T08:01:09;101239.28;;;7.96;90.78
30598;BME280;17365;48.878;8.334;2023-02-20T08:03:34;101234.22;;;8.00;90.24
30598;BME280;17365;48.878;8.334;2023-02-20T08:05:59;101234.47;;;8.08;90.26
30598;BME280;17365;48.878;8.334;2023-02-20T08:08:24;101233.69;;;8.10;90.71
30598;BME280;17365;48.878;8.334;2023-02-20T08:10:50;101238.97;;;8.15;90.07
30598;BME280;17365;48.878;8.334;2023-02-20T08:13:16;101242.72;;;8.25;89.72
30598;BME280;17365;48.878;8.334;2023-02-20T08:15:41;101242.88;;;8.29;89.56
30598;BME280;17365;48.878;8.334;2023-02-20T08:18:09;101246.56;;;8.37;88.96
30598;BME280;17365;48.878;8.334;2023-02-20T08:20:34;101251.13;;;8.46;89.22
30598;BME280;17365;48.878;8.334;2023-02-20T08:22:59;101248.72;;;8.52;88.24
30598;BME280;17365;48.878;8.334;2023-02-20T08:25:25;101251.38;;;8.55;87.45
30598;BME280;17365;48.878;8.334;2023-02-20T08:27:50;101249.25;;;8.40;88.32
30598;BME280;17365;48.878;8.334;2023-02-20T08:30:26;101251.84;;;8.40;88.18
30598;BME280;17365;48.878;8.334;2023-02-20T08:32:53;101242.88;;;8.59;88.01
30598;BME280;17365;48.878;8.334;2023-02-20T08:35:19;101243.03;;;8.64;86.73
30598;BME280;17365;48.878;8.334;2023-02-20T08:37:45;101240.81;;;8.78;85.91
30598;BME280;17365;48.878;8.334;2023-02-20T08:40:11;101241.31;;;8.64;84.96
30598;BME280;17365;48.878;8.334;2023-02-20T08:42:36;101242.47;;;8.75;84.47
30598;BME280;17365;48.878;8.334;2023-02-20T08:45:06;101234.44;;;8.98;82.81
30598;BME280;17365;48.878;8.334;2023-02-20T08:47:32;101234.25;;;9.23;82.00
30598;BME280;17365;48.878;8.334;2023-02-20T08:49:57;101231.66;;;9.23;80.37
30598;BME280;17365;48.878;8.334;2023-02-20T08:52:23;101229.06;;;9.23;80.99
30598;BME280;17365;48.878;8.334;2023-02-20T08:54:48;101225.59;;;9.23;80.97
30598;BME280;17365;48.878;8.334;2023-02-20T08:57:15;101224.53;;;9.51;79.66
30598;BME280;17365;48.878;8.334;2023-02-20T08:59:41;101225.56;;;9.57;79.11
30598;BME280;17365;48.878;8.334;2023-02-20T09:02:16;101233.44;;;9.62;79.26
30598;BME280;17365;48.878;8.334;2023-02-20T09:04:45;101223.31;;;9.71;78.60
30598;BME280;17365;48.878;8.334;2023-02-20T09:07:12;101224.44;;;9.84;77.77
30598;BME280;17365;48.878;8.334;2023-02-20T09:09:37;101221.09;;;9.88;77.10
30598;BME280;17365;48.878;8.334;2023-02-20T09:12:03;101220.94;;;10.19;77.25
30598;BME280;17365;48.878;8.334;2023-02-20T09:14:29;101220.34;;;10.31;76.86
30598;BME280;17365;48.878;8.334;2023-02-20T09:16:54;101215.94;;;10.27;76.34
30598;BME280;17365;48.878;8.334;2023-02-20T09:19:19;101219.53;;;10.34;76.14
30598;BME280;17365;48.878;8.334;2023-02-20T09:21:48;101222.22;;;10.38;75.19
30598;BME280;17365;48.878;8.334;2023-02-20T09:24:13;101212.78;;;10.42;74.98
30598;BME280;17365;48.878;8.334;2023-02-20T09:26:39;101217.91;;;10.40;74.47
30598;BME280;17365;48.878;8.334;2023-02-20T09:29:04;101215.94;;;10.29;73.69
30598;BME280;17365;48.878;8.334;2023-02-20T09:31:29;101214.31;;;10.32;73.35
30598;BME280;17365;48.878;8.334;2023-02-20T09:33:55;101212.69;;;10.37;73.76
30598;BME280;17365;48.878;8.334;2023-02-20T09:36:20;101206.13;;;10.55;73.28
30598;BME280;17365;48.878;8.334;2023-02-20T09:38:45;101205.50;;;10.68;73.42
30598;BME280;17365;48.878;8.334;2023-02-20T09:44:01;101204.59;;;10.66;71.96
30598;BME280;17365;48.878;8.334;2023-02-20T09:46:30;101202.47;;;10.90;71.33
30598;BME280;17365;48.878;8.334;2023-02-20T09:49:31;101194.78;;;10.98;70.66
30598;BME280;17365;48.878;8.334;2023-02-20T09:52:05;101201.56;;;10.88;69.97
30598;BME280;17365;48.878;8.334;2023-02-20T09:54:39;101195.66;;;10.98;70.02
30598;BME280;17365;48.878;8.334;2023-02-20T09:57:12;101187.09;;;11.02;69.35
30598;BME280;17365;48.878;8.334;2023-02-20T09:59:44;101183.09;;;11.21;69.44
30598;BME280;17365;48.878;8.334;2023-02-20T10:02:16;101180.63;;;11.32;69.62
30598;BME280;17365;48.878;8.334;2023-02-20T10:04:44;101171.16;;;11.34;69.08
30598;BME280;17365;48.878;8.334;2023-02-20T10:09:42;101174.63;;;11.34;67.89
30598;BME280;17365;48.878;8.334;2023-02-20T10:12:28;101166.94;;;11.42;66.97
30598;BME280;17365;48.878;8.334;2023-02-20T10:17:44;101173.34;;;11.09;66.61
30598;BME280;17365;48.878;8.334;2023-02-20T10:20:19;101163.00;;;11.11;65.55
30598;BME280;17365;48.878;8.334;2023-02-20T10:25:24;101153.09;;;11.43;65.70
30598;BME280;17365;48.878;8.334;2023-02-20T10:27:56;101153.84;;;11.33;66.10
30598;BME280;17365;48.878;8.334;2023-02-20T10:33:34;101166.25;;;11.54;65.67
30598;BME280;17365;48.878;8.334;2023-02-20T10:38:59;101155.00;;;11.55;64.67
30598;BME280;17365;48.878;8.334;2023-02-20T10:41:53;101158.41;;;11.49;64.94
30598;BME280;17365;48.878;8.334;2023-02-20T10:44:28;101149.03;;;11.59;63.87
30598;BME280;17365;48.878;8.334;2023-02-20T10:47:02;101151.75;;;11.66;63.67
30598;BME280;17365;48.878;8.334;2023-02-20T10:50:11;101138.78;;;11.70;63.52
30598;BME280;17365;48.878;8.334;2023-02-20T10:52:49;101141.50;;;11.79;63.08
30598;BME280;17365;48.878;8.334;2023-02-20T10:55:35;101136.47;;;11.89;62.79
30598;BME280;17365;48.878;8.334;2023-02-20T10:58:16;101136.50;;;11.91;63.31
30598;BME280;17365;48.878;8.334;2023-02-20T11:00:49;101138.25;;;11.95;62.51
30598;BME280;17365;48.878;8.334;2023-02-20T11:04:35;101137.53;;;12.07;61.91
30598;BME280;17365;48.878;8.334;2023-02-20T11:06:33;101133.25;;;12.10;62.52
30598;BME280;17365;48.878;8.334;2023-02-20T11:09:01;101126.38;;;12.14;61.91
30598;BME280;17365;48.878;8.334;2023-02-20T11:11:35;101119.56;;;12.25;61.04
30598;BME280;17365;48.878;8.334;2023-02-20T11:14:40;101128.88;;;12.06;61.39
30598;BME280;17365;48.878;8.334;2023-02-20T11:17:10;101122.34;;;11.74;61.72
30598;BME280;17365;48.878;8.334;2023-02-20T11:19:52;101134.47;;;11.72;61.77
30598;BME280;17365;48.878;8.334;2023-02-20T11:22:44;101131.88;;;11.73;61.09
30598;BME280;17365;48.878;8.334;2023-02-20T11:25:33;101122.81;;;12.09;61.14
30598;BME280;17365;48.878;8.334;2023-02-20T11:28:18;101119.50;;;12.20;60.93
30598;BME280;17365;48.878;8.334;2023-02-20T11:30:47;101113.59;;;12.35;60.69
30598;BME280;17365;48.878;8.334;2023-02-20T11:33:24;101114.53;;;12.45;60.99
30598;BME280;17365;48.878;8.334;2023-02-20T11:35:58;101105.00;;;12.44;60.72
30598;BME280;17365;48.878;8.334;2023-02-20T11:38:35;101102.34;;;12.38;60.66
30598;BME280;17365;48.878;8.334;2023-02-20T11:41:07;101103.03;;;12.21;60.13
30598;BME280;17365;48.878;8.334;2023-02-20T11:43:39;101094.22;;;12.09;60.69
30598;BME280;17365;48.878;8.334;2023-02-20T11:46:18;101091.88;;;12.33;60.33
30598;BME280;17365;48.878;8.334;2023-02-20T11:49:01;101092.94;;;12.50;59.67
30598;BME280;17365;48.878;8.334;2023-02-20T11:51:46;101079.91;;;12.47;59.52
30598;BME280;17365;48.878;8.334;2023-02-20T11:54:25;101078.25;;;12.57;59.54
30598;BME280;17365;48.878;8.334;2023-02-20T11:57:12;101064.38;;;12.58;59.46
30598;BME280;17365;48.878;8.334;2023-02-20T11:59:47;101060.63;;;12.30;60.15
30598;BME280;17365;48.878;8.334;2023-02-20T12:05:06;101041.94;;;12.72;59.56
30598;BME280;17365;48.878;8.334;2023-02-20T12:12:44;101046.34;;;12.84;58.88
30598;BME280;17365;48.878;8.334;2023-02-20T12:15:14;101039.41;;;12.83;59.38
30598;BME280;17365;48.878;8.334;2023-02-20T12:18:22;101035.19;;;13.02;59.73
30598;BME280;17365;48.878;8.334;2023-02-20T12:20:58;101036.13;;;13.11;58.63
30598;BME280;17365;48.878;8.334;2023-02-20T12:23:34;101027.34;;;12.99;58.88
30598;BME280;17365;48.878;8.334;2023-02-20T12:26:26;101026.47;;;12.98;58.13
30598;BME280;17365;48.878;8.334;2023-02-20T12:29:09;101014.16;;;12.74;58.35
30598;BME280;17365;48.878;8.334;2023-02-20T12:37:40;100991.81;;;13.05;57.75
30598;BME280;17365;48.878;8.334;2023-02-20T12:43:17;100971.00;;;13.10;58.47
30598;BME280;17365;48.878;8.334;2023-02-20T12:48:35;100969.44;;;13.39;58.26
30598;BME280;17365;48.878;8.334;2023-02-20T12:56:05;100957.97;;;13.13;55.71
30598;BME280;17365;48.878;8.334;2023-02-20T12:58:47;100953.63;;;13.10;55.85
30598;BME280;17365;48.878;8.334;2023-02-20T13:01:18;100953.72;;;13.24;55.52
30598;BME280;17365;48.878;8.334;2023-02-20T13:03:58;100957.28;;;13.37;56.04
30598;BME280;17365;48.878;8.334;2023-02-20T13:06:54;100958.13;;;13.39;55.32
30598;BME280;17365;48.878;8.334;2023-02-20T13:09:25;100957.28;;;13.46;55.65
30598;BME280;17365;48.878;8.334;2023-02-20T13:12:00;100952.88;;;13.30;55.38
30598;BME280;17365;48.878;8.334;2023-02-20T13:17:36;100939.03;;;13.40;55.40
30598;BME280;17365;48.878;8.334;2023-02-20T13:20:20;100931.22;;;13.40;55.58
30598;BME280;17365;48.878;8.334;2023-02-20T13:23:02;100940.63;;;13.17;56.26
30598;BME280;17365;48.878;8.334;2023-02-20T13:25:35;100933.81;;;13.45;56.30
30598;BME280;17365;48.878;8.334;2023-02-20T13:33:51;100925.19;;;13.62;56.21
30598;BME280;17365;48.878;8.334;2023-02-20T13:36:48;100928.69;;;13.80;56.08
30598;BME280;17365;48.878;8.334;2023-02-20T13:54:59;100887.81;;;13.68;54.92
30598;BME280;17365;48.878;8.334;2023-02-20T13:57:29;100872.19;;;13.74;54.71
30598;BME280;17365;48.878;8.334;2023-02-20T13:59:58;100867.81;;;13.55;54.09
30598;BME280;17365;48.878;8.334;2023-02-20T14:02:23;100878.25;;;13.59;54.05
30598;BME280;17365;48.878;8.334;2023-02-20T14:05:05;100872.19;;;13.76;54.01
30598;BME280;17365;48.878;8.334;2023-02-20T14:07:35;100875.66;;;13.90;55.04
30598;BME280;17365;48.878;8.334;2023-02-20T14:13:15;100869.56;;;13.66;53.27
30598;BME280;17365;48.878;8.334;2023-02-20T14:15:50;100851.28;;;13.59;53.67
30598;BME280;17365;48.878;8.334;2023-02-20T14:18:25;100846.97;;;13.62;54.33
30598;BME280;17365;48.878;8.334;2023-02-20T14:20:57;100847.84;;;13.69;54.47
30598;BME280;17365;48.878;8.334;2023-02-20T14:23:28;100837.41;;;13.67;54.77
30598;BME280;17365;48.878;8.334;2023-02-20T14:26:00;100838.28;;;13.74;54.28
30598;BME280;17365;48.878;8.334;2023-02-20T14:28:27;100838.28;;;13.63;53.22
30598;BME280;17365;48.878;8.334;2023-02-20T14:31:21;100825.25;;;13.60;53.69
30598;BME280;17365;48.878;8.334;2023-02-20T14:33:49;100835.66;;;13.57;54.16
30598;BME280;17365;48.878;8.334;2023-02-20T14:41:58;100813.09;;;13.61;54.04
30598;BME280;17365;48.878;8.334;2023-02-20T14:44:24;100809.59;;;13.66;54.61
30598;BME280;17365;48.878;8.334;2023-02-20T14:46:53;100816.56;;;13.74;54.90
30598;BME280;17365;48.878;8.334;2023-02-20T14:49:28;100808.72;;;13.58;54.15